createdAt,value
2024-03-03T00:02:24.655Z,97044.75
2024-03-03T00:05:26.462Z,97043.72
2024-03-03T00:08:28.493Z,97038.09
2024-03-03T00:11:31.727Z,97041.06
2024-03-03T00:14:35.209Z,97038.41
2024-03-03T00:17:37.546Z,97035.09
2024-03-03T00:20:40.872Z,97033.28
2024-03-03T00:23:42.768Z,97030.78
2024-03-03T00:26:45.722Z,97030.69
2024-03-03T00:29:47.346Z,97023.88
2024-03-03T00:32:49.048Z,97025.56
2024-03-03T00:35:51.038Z,97031.03
2024-03-03T00:38:53.505Z,97032.03
2024-03-03T00:41:56.553Z,97023.16
2024-03-03T00:44:58.160Z,97014.50
2024-03-03T00:47:59.777Z,97011.00
2024-03-03T00:51:01.485Z,97015.59
2024-03-03T00:54:03.212Z,97021.28
2024-03-03T00:57:07.371Z,97015.91
2024-03-03T01:00:10.338Z,97021.31
2024-03-03T01:03:12.175Z,97019.50
2024-03-03T01:06:14.167Z,97016.47
2024-03-03T01:09:15.868Z,97013.63
2024-03-03T01:12:19.290Z,97009.72
2024-03-03T01:15:20.954Z,97008.16
2024-03-03T01:18:22.716Z,97007.88
2024-03-03T01:21:24.272Z,96999.25
2024-03-03T01:24:26.249Z,97002.50
2024-03-03T01:27:29.430Z,96993.63
2024-03-03T01:30:31.097Z,96987.91
2024-03-03T01:33:32.846Z,96995.53
2024-03-03T01:36:34.836Z,96992.72
2024-03-03T01:39:39.580Z,96999.03
2024-03-03T01:42:43.181Z,96996.13
2024-03-03T01:45:44.993Z,96995.38
2024-03-03T01:48:47.446Z,96999.72
2024-03-03T01:51:49.319Z,96998.88
2024-03-03T01:54:51.097Z,96991.78
2024-03-03T01:57:57.966Z,96987.44
2024-03-03T02:01:01.874Z,96982.91
2024-03-03T02:04:03.885Z,96976.06
2024-03-03T02:07:07.696Z,96968.88
2024-03-03T02:10:10.621Z,96969.47
2024-03-03T02:13:13.816Z,96966.06
2024-03-03T02:16:15.898Z,96959.91
2024-03-03T02:19:18.758Z,96966.69
2024-03-03T02:22:21.954Z,96980.06
2024-03-03T02:25:23.772Z,96984.50
2024-03-03T02:28:26.500Z,96976.56
2024-03-03T02:31:28.438Z,96981.88
2024-03-03T02:34:30.312Z,96976.84
2024-03-03T02:37:33.401Z,96980.34
2024-03-03T02:40:35.225Z,96974.09
2024-03-03T02:43:36.993Z,96973.72
2024-03-03T02:46:38.587Z,96969.19
2024-03-03T02:49:40.266Z,96970.66
2024-03-03T02:52:43.429Z,96974.59
2024-03-03T02:55:45.113Z,96980.75
2024-03-03T02:58:46.861Z,96981.09
2024-03-03T03:01:51.267Z,96977.50
2024-03-03T03:04:53.362Z,96971.34
2024-03-03T03:07:58.732Z,96975.03
2024-03-03T03:11:00.447Z,96976.97
2024-03-03T03:14:02.357Z,96977.69
2024-03-03T03:17:04.352Z,96970.72
2024-03-03T03:20:06.571Z,96969.88
2024-03-03T03:23:09.619Z,96970.81
2024-03-03T03:26:11.842Z,96975.44
2024-03-03T03:29:13.470Z,96975.66
2024-03-03T03:32:15.257Z,96975.25
2024-03-03T03:35:16.853Z,96977.03
2024-03-03T03:38:19.858Z,96983.94
2024-03-03T03:41:21.433Z,96981.38
2024-03-03T03:44:23.050Z,96977.97
2024-03-03T03:47:24.627Z,96983.50
2024-03-03T03:50:26.224Z,96972.13
2024-03-03T03:53:29.397Z,96967.78
2024-03-03T03:56:31.359Z,96971.28
2024-03-03T03:59:33.150Z,96970.25
2024-03-03T04:02:34.785Z,96968.56
2024-03-03T04:05:36.460Z,96970.94
2024-03-03T04:08:40.719Z,96971.66
2024-03-03T04:11:42.359Z,96971.56
2024-03-03T04:14:44.018Z,96979.50
2024-03-03T04:17:45.722Z,96967.91
2024-03-03T04:20:47.254Z,96973.19
2024-03-03T04:23:50.167Z,96970.63
2024-03-03T04:26:51.806Z,96970.53
2024-03-03T04:29:53.433Z,96972.34
2024-03-03T04:32:55.106Z,96967.22
2024-03-03T04:35:56.932Z,96962.94
2024-03-03T04:39:00.076Z,96961.47
2024-03-03T04:42:03.506Z,96954.88
2024-03-03T04:45:05.761Z,96953.41
2024-03-03T04:48:07.893Z,96950.91
2024-03-03T04:51:09.535Z,96955.44
2024-03-03T04:54:12.521Z,96958.06
2024-03-03T04:57:17.185Z,96960.81
2024-03-03T05:00:18.976Z,96959.09
2024-03-03T05:03:20.562Z,96950.22
2024-03-03T05:06:22.229Z,96957.22
2024-03-03T05:09:25.441Z,96954.44
2024-03-03T05:12:27.092Z,96955.19
2024-03-03T05:15:28.750Z,96952.38
2024-03-03T05:18:30.434Z,96953.84
2024-03-03T05:21:32.057Z,96954.56
2024-03-03T05:24:35.259Z,96961.56
2024-03-03T05:27:37.381Z,96961.72
2024-03-03T05:30:39.618Z,96963.66
2024-03-03T05:33:41.240Z,96961.25
2024-03-03T05:36:43.581Z,96963.81
2024-03-03T05:39:46.612Z,96969.81
2024-03-03T05:42:48.258Z,96966.47
2024-03-03T05:45:49.858Z,96971.69
2024-03-03T05:48:51.559Z,96972.63
2024-03-03T05:51:53.259Z,96978.84
2024-03-03T05:54:56.299Z,96975.66
2024-03-03T05:57:58.084Z,96977.63
2024-03-03T06:00:59.820Z,96981.97
2024-03-03T06:04:01.523Z,96980.00
2024-03-03T06:07:03.573Z,96986.94
2024-03-03T06:10:07.242Z,96982.59
2024-03-03T06:13:09.269Z,96991.38
2024-03-03T06:16:11.228Z,96982.59
2024-03-03T06:19:12.920Z,96983.44
2024-03-03T06:22:14.614Z,96981.78
2024-03-03T06:25:17.614Z,96985.25
2024-03-03T06:28:19.318Z,96987.88
2024-03-03T06:31:21.061Z,96978.94
2024-03-03T06:34:22.758Z,96977.81
2024-03-03T06:37:24.438Z,96981.94
2024-03-03T06:40:27.466Z,96982.56
2024-03-03T06:43:29.176Z,96987.34
2024-03-03T06:46:30.896Z,96986.03
2024-03-03T06:49:32.582Z,96990.13
2024-03-03T06:52:34.232Z,96985.34
2024-03-03T06:55:38.232Z,96990.38
2024-03-03T06:58:39.870Z,96981.38
2024-03-03T07:01:41.595Z,96982.03
2024-03-03T07:04:43.334Z,96986.22
2024-03-03T07:07:44.942Z,96990.19
2024-03-03T07:10:47.932Z,96989.09
2024-03-03T07:13:49.518Z,96994.81
2024-03-03T07:16:51.736Z,97000.47
2024-03-03T07:19:53.516Z,97001.56
2024-03-03T07:22:55.131Z,97005.41
2024-03-03T07:25:58.190Z,97002.91
2024-03-03T07:29:01.020Z,96997.94
2024-03-03T07:32:03.843Z,96999.75
2024-03-03T07:35:05.885Z,96999.31
2024-03-03T07:38:07.469Z,97003.34
2024-03-03T07:41:10.370Z,97003.66
2024-03-03T07:44:12.128Z,97004.78
2024-03-03T07:47:13.696Z,97010.59
2024-03-03T07:50:15.357Z,97015.38
2024-03-03T07:53:17.858Z,97016.72
2024-03-03T07:56:21.774Z,97011.69
2024-03-03T07:59:23.385Z,97011.00
2024-03-03T08:02:25.034Z,97011.09
2024-03-03T08:05:26.748Z,97018.78
2024-03-03T08:08:28.341Z,97018.22
2024-03-03T08:11:33.597Z,97018.72
2024-03-03T08:14:35.271Z,97022.66
2024-03-03T08:17:36.894Z,97017.38
2024-03-03T08:20:38.576Z,97005.13
2024-03-03T08:23:40.409Z,96994.66
2024-03-03T08:26:47.451Z,96996.53
2024-03-03T08:29:49.252Z,96996.84
2024-03-03T08:32:50.844Z,96988.59
2024-03-03T08:35:52.438Z,96976.97
2024-03-03T08:38:54.020Z,96981.81
2024-03-03T08:41:56.994Z,96979.94
2024-03-03T08:44:58.733Z,96977.50
2024-03-03T08:48:00.343Z,96975.91
2024-03-03T08:51:06.981Z,96982.72
2024-03-03T08:54:08.567Z,96976.88
2024-03-03T08:57:11.605Z,96976.03
2024-03-03T09:00:16.721Z,96968.47
2024-03-03T09:03:19.182Z,96968.88
2024-03-03T09:06:21.105Z,96970.38
2024-03-03T09:09:22.785Z,96978.75
2024-03-03T09:12:25.740Z,96972.13
2024-03-03T09:15:27.314Z,96976.91
2024-03-03T09:18:28.901Z,96973.56
2024-03-03T09:21:30.694Z,96977.38
2024-03-03T09:24:32.434Z,96975.09
2024-03-03T09:27:36.389Z,96981.44
2024-03-03T09:30:38.089Z,96980.66
2024-03-03T09:33:40.305Z,96987.41
2024-03-03T09:36:42.671Z,96987.19
2024-03-03T09:39:44.425Z,96981.59
2024-03-03T09:42:47.754Z,96990.66
2024-03-03T09:45:51.115Z,96978.66
2024-03-03T09:48:53.390Z,96977.97
2024-03-03T09:51:56.278Z,96969.09
2024-03-03T09:54:59.079Z,96972.59
2024-03-03T09:58:02.248Z,96972.47
2024-03-03T10:01:06.348Z,96975.19
2024-03-03T10:04:08.516Z,96966.34
2024-03-03T10:07:10.695Z,96980.34
2024-03-03T10:10:16.338Z,96983.25
2024-03-03T10:13:21.111Z,96979.56
2024-03-03T10:16:23.830Z,96982.00
2024-03-03T10:19:28.304Z,96982.31
2024-03-03T10:22:30.191Z,96980.72
2024-03-03T10:25:32.225Z,96987.41
2024-03-03T10:28:35.478Z,96984.94
2024-03-03T10:31:37.088Z,96982.75
2024-03-03T10:34:38.792Z,96986.16
2024-03-03T10:37:52.738Z,96976.16
2024-03-03T10:40:54.736Z,96981.25
2024-03-03T10:43:58.873Z,96982.00
2024-03-03T10:47:00.568Z,96982.47
2024-03-03T10:50:03.242Z,96983.97
2024-03-03T10:53:12.505Z,96980.72
2024-03-03T10:56:14.879Z,96982.13
2024-03-03T10:59:18.121Z,96981.41
2024-03-03T11:02:20.094Z,96980.94
2024-03-03T11:05:22.085Z,96985.19
2024-03-03T11:08:24.536Z,96987.66
2024-03-03T11:11:28.042Z,96986.88
2024-03-03T11:14:36.815Z,96982.75
2024-03-03T11:17:41.004Z,96965.97
2024-03-03T11:20:47.904Z,96970.97
2024-03-03T11:23:53.136Z,96978.47
2024-03-03T11:26:57.989Z,96973.84
2024-03-03T11:30:01.045Z,96967.91
2024-03-03T11:33:03.541Z,96970.88
2024-03-03T11:36:05.841Z,96972.22
2024-03-03T11:39:10.597Z,96970.81
2024-03-03T11:42:22.429Z,96968.97
2024-03-03T11:45:38.938Z,96964.41
2024-03-03T11:48:45.887Z,96960.75
2024-03-03T11:51:47.526Z,96956.56
2024-03-03T11:54:53.495Z,96955.00
2024-03-03T11:57:56.065Z,96951.72
2024-03-03T12:01:09.365Z,96944.13
2024-03-03T12:04:12.923Z,96943.25
2024-03-03T12:07:15.914Z,96949.59
2024-03-03T12:10:18.173Z,96949.38
2024-03-03T12:13:19.951Z,96946.50
2024-03-03T12:16:21.661Z,96941.69
2024-03-03T12:19:24.937Z,96944.47
2024-03-03T12:22:27.049Z,96941.63
2024-03-03T12:25:29.529Z,96936.88
2024-03-03T12:28:31.620Z,96939.34
2024-03-03T12:31:33.591Z,96935.50
2024-03-03T12:34:36.632Z,96933.63
2024-03-03T12:37:39.174Z,96936.88
2024-03-03T12:40:40.841Z,96928.44
2024-03-03T12:43:42.610Z,96925.63
2024-03-03T12:46:44.463Z,96934.81
2024-03-03T12:49:47.480Z,96925.34
2024-03-03T12:52:49.398Z,96922.50
2024-03-03T12:55:51.583Z,96930.44
2024-03-03T12:58:53.193Z,96929.81
2024-03-03T13:01:55.013Z,96924.25
2024-03-03T13:04:59.108Z,96923.69
2024-03-03T13:08:01.139Z,96919.88
2024-03-03T13:11:03.301Z,96927.38
2024-03-03T13:14:05.091Z,96927.88
2024-03-03T13:17:06.882Z,96929.81
2024-03-03T13:20:13.653Z,96917.31
2024-03-03T13:23:17.375Z,96921.84
2024-03-03T13:26:18.984Z,96917.78
2024-03-03T13:29:20.618Z,96919.38
2024-03-03T13:32:22.322Z,96916.84
2024-03-03T13:35:25.319Z,96925.88
2024-03-03T13:38:27.244Z,96932.38
2024-03-03T13:41:28.898Z,96930.69
2024-03-03T13:44:30.651Z,96935.00
2024-03-03T13:47:32.428Z,96935.56
2024-03-03T13:50:35.365Z,96933.03
2024-03-03T13:53:37.044Z,96940.94
2024-03-03T13:56:40.229Z,96950.97
2024-03-03T13:59:43.268Z,96953.84
2024-03-03T14:02:45.446Z,96945.31
2024-03-03T14:05:49.140Z,96950.03
2024-03-03T14:08:50.882Z,96947.22
2024-03-03T14:11:52.501Z,96951.41
2024-03-03T14:14:54.241Z,96957.47
2024-03-03T14:17:55.933Z,96958.13
2024-03-03T14:20:59.309Z,96944.34
2024-03-03T14:24:00.882Z,96950.66
2024-03-03T14:27:02.540Z,96941.75
2024-03-03T14:30:04.646Z,96941.56
2024-03-03T14:33:06.572Z,96947.53
2024-03-03T14:36:10.259Z,96947.69
2024-03-03T14:39:12.352Z,96953.84
2024-03-03T14:42:14.142Z,96950.47
2024-03-03T14:45:15.744Z,96945.38
2024-03-03T14:48:17.587Z,96949.00
2024-03-03T14:51:21.664Z,96947.50
2024-03-03T14:54:23.261Z,96950.53
2024-03-03T14:57:27.583Z,96946.91
2024-03-03T15:00:29.433Z,96952.28
2024-03-03T15:03:31.143Z,96949.66
2024-03-03T15:06:34.285Z,96947.66
2024-03-03T15:09:35.864Z,96946.81
2024-03-03T15:12:37.500Z,96940.69
2024-03-03T15:15:39.166Z,96941.84
2024-03-03T15:18:40.809Z,96938.09
2024-03-03T15:21:43.840Z,96941.41
2024-03-03T15:24:48.568Z,96942.97
2024-03-03T15:27:50.717Z,96947.47
2024-03-03T15:30:52.358Z,96938.09
2024-03-03T15:33:55.105Z,96934.50
2024-03-03T15:36:59.088Z,96937.81
2024-03-03T15:40:00.814Z,96940.06
2024-03-03T15:43:02.672Z,96951.13
2024-03-03T15:46:04.510Z,96945.44
2024-03-03T15:49:06.624Z,96952.78
2024-03-03T15:52:09.577Z,96949.88
2024-03-03T15:55:12.640Z,96949.63
2024-03-03T15:58:14.433Z,96954.63
2024-03-03T16:01:16.217Z,96951.84
2024-03-03T16:04:18.145Z,96958.94
2024-03-03T16:07:22.047Z,96964.19
2024-03-03T16:10:23.703Z,96964.06
2024-03-03T16:13:25.331Z,96957.22
2024-03-03T16:16:28.241Z,96963.44
2024-03-03T16:19:30.264Z,96963.44
2024-03-03T16:22:33.296Z,96979.84
2024-03-03T16:25:36.478Z,96976.25
2024-03-03T16:28:38.298Z,96973.97
2024-03-03T16:31:40.257Z,96977.50
2024-03-03T16:34:42.582Z,96982.06
2024-03-03T16:37:46.209Z,96979.94
2024-03-03T16:40:47.941Z,96979.75
2024-03-03T16:43:49.824Z,96984.56
2024-03-03T16:46:51.584Z,96995.44
2024-03-03T16:49:53.306Z,96991.22
2024-03-03T16:52:56.860Z,96993.75
2024-03-03T16:55:59.131Z,96996.72
2024-03-03T16:59:01.035Z,96999.34
2024-03-03T17:02:02.743Z,97002.56
2024-03-03T17:05:04.894Z,97004.19
2024-03-03T17:08:08.269Z,97012.13
2024-03-03T17:11:09.877Z,97003.91
2024-03-03T17:14:11.537Z,97015.63
2024-03-03T17:17:13.190Z,97020.56
2024-03-03T17:20:15.072Z,97026.09
2024-03-03T17:23:18.686Z,97022.91
2024-03-03T17:26:20.399Z,97026.13
2024-03-03T17:29:22.146Z,97037.84
2024-03-03T17:32:23.908Z,97035.94
2024-03-03T17:35:25.689Z,97045.75
2024-03-03T17:38:30.044Z,97045.97
2024-03-03T17:41:31.655Z,97055.09
2024-03-03T17:44:33.240Z,97066.22
2024-03-03T17:47:35.044Z,97063.84
2024-03-03T17:50:36.727Z,97062.34
2024-03-03T17:53:39.773Z,97064.38
2024-03-03T17:56:47.511Z,97068.09
2024-03-03T17:59:49.166Z,97073.94
2024-03-03T18:02:50.817Z,97075.94
2024-03-03T18:05:52.470Z,97070.72
2024-03-03T18:08:55.365Z,97070.72
2024-03-03T18:11:57.211Z,97076.06
2024-03-03T18:14:59.167Z,97079.03
2024-03-03T18:18:00.881Z,97081.72
2024-03-03T18:21:02.901Z,97079.91
2024-03-03T18:24:07.101Z,97079.16
2024-03-03T18:27:08.842Z,97081.72
2024-03-03T18:30:11.165Z,97079.34
2024-03-03T18:33:12.933Z,97085.94
2024-03-03T18:36:17.619Z,97087.00
2024-03-03T18:39:24.228Z,97086.22
2024-03-03T18:42:26.193Z,97086.75
2024-03-03T18:45:27.887Z,97082.50
2024-03-03T18:48:30.745Z,97096.72
2024-03-03T18:51:34.591Z,97100.44
2024-03-03T18:54:37.661Z,97098.84
2024-03-03T18:57:39.350Z,97104.38
2024-03-03T19:00:41.697Z,97104.56
2024-03-03T19:03:44.237Z,97104.88
2024-03-03T19:06:45.979Z,97107.06
2024-03-03T19:09:50.007Z,97105.56
2024-03-03T19:12:51.964Z,97109.41
2024-03-03T19:15:54.239Z,97114.13
2024-03-03T19:18:55.966Z,97118.81
2024-03-03T19:21:57.709Z,97122.31
2024-03-03T19:25:00.715Z,97116.25
2024-03-03T19:28:02.662Z,97120.78
2024-03-03T19:31:04.889Z,97122.59
2024-03-03T19:34:06.701Z,97124.63
2024-03-03T19:37:09.882Z,97123.88
2024-03-03T19:40:13.957Z,97123.13
2024-03-03T19:43:16.148Z,97127.69
2024-03-03T19:46:18.111Z,97128.69
2024-03-03T19:49:20.030Z,97138.59
2024-03-03T19:52:21.854Z,97133.38
2024-03-03T19:55:24.884Z,97137.09
2024-03-03T19:58:26.964Z,97137.34
2024-03-03T20:01:28.682Z,97144.47
2024-03-03T20:04:30.298Z,97148.09
2024-03-03T20:07:32.019Z,97144.78
2024-03-03T20:10:35.060Z,97151.16
2024-03-03T20:13:36.813Z,97141.53
2024-03-03T20:16:38.687Z,97142.44
2024-03-03T20:19:40.952Z,97140.09
2024-03-03T20:22:44.784Z,97145.50
2024-03-03T20:25:47.714Z,97143.97
2024-03-03T20:28:49.613Z,97143.22
2024-03-03T20:31:51.396Z,97151.28
2024-03-03T20:34:56.823Z,97149.69
2024-03-03T20:37:58.414Z,97156.91
2024-03-03T20:41:02.519Z,97161.44
2024-03-03T20:44:04.275Z,97166.09
2024-03-03T20:47:08.092Z,97170.75
2024-03-03T20:50:10.249Z,97163.13
2024-03-03T20:53:12.465Z,97160.56
2024-03-03T20:56:15.433Z,97162.56
2024-03-03T20:59:16.992Z,97163.88
2024-03-03T21:02:20.303Z,97169.63
2024-03-03T21:05:22.693Z,97170.19
2024-03-03T21:08:24.244Z,97177.56
2024-03-03T21:11:27.398Z,97173.41
2024-03-03T21:14:29.863Z,97176.28
2024-03-03T21:17:31.699Z,97177.34
2024-03-03T21:20:33.313Z,97171.94
2024-03-03T21:23:34.950Z,97184.25
2024-03-03T21:26:43.064Z,97187.63
2024-03-03T21:29:44.613Z,97192.94
2024-03-03T21:32:46.377Z,97181.34
2024-03-03T21:35:48.446Z,97185.81
2024-03-03T21:38:49.923Z,97182.22
2024-03-03T21:41:52.939Z,97180.50
2024-03-03T21:44:54.559Z,97189.41
2024-03-03T21:47:56.256Z,97185.81
2024-03-03T21:50:57.757Z,97185.13
2024-03-03T21:53:59.294Z,97190.44
2024-03-03T21:57:02.232Z,97195.75
2024-03-03T22:00:04.045Z,97200.91
2024-03-03T22:03:14.017Z,97191.97
2024-03-03T22:06:15.647Z,97197.97
2024-03-03T22:09:17.314Z,97198.72
2024-03-03T22:12:20.208Z,97201.56
2024-03-03T22:15:21.913Z,97201.06
2024-03-03T22:18:23.404Z,97203.31
2024-03-03T22:21:27.485Z,97199.19
2024-03-03T22:24:29.368Z,97203.00
2024-03-03T22:27:32.269Z,97202.38
2024-03-03T22:30:33.832Z,97210.63
2024-03-03T22:33:37.465Z,97205.47
2024-03-03T22:36:39.054Z,97203.94
2024-03-03T22:39:40.823Z,97207.63
2024-03-03T22:42:43.972Z,97209.41
2024-03-03T22:45:45.639Z,97216.63
2024-03-03T22:48:47.260Z,97219.28
2024-03-03T22:51:50.089Z,97220.28
2024-03-03T22:54:51.743Z,97222.06
2024-03-03T22:57:54.725Z,97214.22
2024-03-03T23:00:56.467Z,97220.47
2024-03-03T23:03:58.284Z,97222.16
2024-03-03T23:07:00.049Z,97219.44
2024-03-03T23:10:02.032Z,97220.22
2024-03-03T23:13:05.082Z,97218.41
2024-03-03T23:16:07.378Z,97223.72
2024-03-03T23:19:11.675Z,97219.09
2024-03-03T23:22:13.451Z,97212.75
2024-03-03T23:25:16.166Z,97222.59
2024-03-03T23:28:19.092Z,97226.19
2024-03-03T23:31:20.703Z,97223.63
2024-03-03T23:34:22.462Z,97223.63
2024-03-03T23:37:24.083Z,97227.31
2024-03-03T23:40:25.754Z,97232.53
2024-03-03T23:43:28.800Z,97231.50
2024-03-03T23:46:30.500Z,97235.78
2024-03-03T23:49:32.253Z,97238.44
2024-03-03T23:52:34.355Z,97235.09
2024-03-03T23:55:36.162Z,97236.19
2024-03-03T23:58:39.158Z,97229.28
